Main page
METAR-TAF:

METAR-TAF

Airports :

Waseca Municipal Airport

Waseca, Minnesota, United States

latitude: 44-04-24N, longitude: 093-33-11W, elevation: 1125 ft

Current weather observation

The report was made 11 minutes ago, at 02:15 UTC
Calm wind
Temperature 46°F
Humidity 53%
Pressure 30.19 in. Hg
Visibility: 10 miles
Clear sky

METAR: KACQ 250215Z AUTO 00000KT 10SM CLR 08/M01 A3019 RMK AO2

Time: 21:26 (02:26 UTC)


TAF: missing

Weather observations and forecasts of more than 4000 airports (METAR and TAF reports).

The available stations are represented by yellow and red dots on the map.

Hover mouse over dot to see the name of the station.

Then click to see weather observations and forecasts.

To change the map : click on the green buttons with a black cross to zoom in, on the green button with a dash to zoom out, or on the green arrows for adjacent maps.


METAR-TAF: